sensor_id;sensor_type;location;lat;lon;timestamp;P1;durP1;ratioP1;P2;durP2;ratioP2
29402;SDS011;16382;59.942;30.472;2022-11-21T00:01:10;7.93;;;4.68;;
29402;SDS011;16382;59.942;30.472;2022-11-21T00:03:43;9.68;;;5.57;;
29402;SDS011;16382;59.942;30.472;2022-11-21T00:06:12;8.50;;;5.63;;
29402;SDS011;16382;59.942;30.472;2022-11-21T00:08:39;9.25;;;5.70;;
29402;SDS011;16382;59.942;30.472;2022-11-21T00:11:07;6.93;;;4.50;;
29402;SDS011;16382;59.942;30.472;2022-11-21T00:13:34;7.38;;;5.35;;
29402;SDS011;16382;59.942;30.472;2022-11-21T00:16:02;7.63;;;5.88;;
29402;SDS011;16382;59.942;30.472;2022-11-21T00:18:32;8.48;;;5.30;;
29402;SDS011;16382;59.942;30.472;2022-11-21T00:21:05;7.00;;;4.85;;
29402;SDS011;16382;59.942;30.472;2022-11-21T00:23:34;5.80;;;4.35;;
29402;SDS011;16382;59.942;30.472;2022-11-21T00:26:04;7.28;;;4.97;;
29402;SDS011;16382;59.942;30.472;2022-11-21T00:28:32;7.43;;;4.95;;
29402;SDS011;16382;59.942;30.472;2022-11-21T00:31:00;6.85;;;5.18;;
29402;SDS011;16382;59.942;30.472;2022-11-21T00:33:28;8.30;;;5.47;;
29402;SDS011;16382;59.942;30.472;2022-11-21T00:35:55;7.63;;;4.90;;
29402;SDS011;16382;59.942;30.472;2022-11-21T00:38:25;7.63;;;5.15;;
29402;SDS011;16382;59.942;30.472;2022-11-21T00:40:53;7.60;;;5.03;;
29402;SDS011;16382;59.942;30.472;2022-11-21T00:43:20;7.22;;;5.20;;
29402;SDS011;16382;59.942;30.472;2022-11-21T00:45:48;7.35;;;4.40;;
29402;SDS011;16382;59.942;30.472;2022-11-21T00:48:15;8.38;;;4.80;;
29402;SDS011;16382;59.942;30.472;2022-11-21T00:50:43;5.45;;;4.70;;
29402;SDS011;16382;59.942;30.472;2022-11-21T00:53:13;8.25;;;5.05;;
29402;SDS011;16382;59.942;30.472;2022-11-21T00:55:42;8.57;;;4.95;;
29402;SDS011;16382;59.942;30.472;2022-11-21T00:58:10;7.53;;;5.15;;
29402;SDS011;16382;59.942;30.472;2022-11-21T01:00:37;5.55;;;4.53;;
29402;SDS011;16382;59.942;30.472;2022-11-21T01:03:04;9.48;;;5.40;;
29402;SDS011;16382;59.942;30.472;2022-11-21T01:05:32;7.13;;;4.72;;
29402;SDS011;16382;59.942;30.472;2022-11-21T01:07:59;8.48;;;5.25;;
29402;SDS011;16382;59.942;30.472;2022-11-21T01:10:26;9.10;;;5.20;;
29402;SDS011;16382;59.942;30.472;2022-11-21T01:12:55;7.68;;;4.95;;
29402;SDS011;16382;59.942;30.472;2022-11-21T01:15:22;7.38;;;4.90;;
29402;SDS011;16382;59.942;30.472;2022-11-21T01:17:50;6.93;;;4.43;;
29402;SDS011;16382;59.942;30.472;2022-11-21T01:20:17;5.22;;;4.05;;
29402;SDS011;16382;59.942;30.472;2022-11-21T01:22:44;7.20;;;4.97;;
29402;SDS011;16382;59.942;30.472;2022-11-21T01:25:12;6.47;;;4.50;;
29402;SDS011;16382;59.942;30.472;2022-11-21T01:27:39;7.57;;;4.72;;
29402;SDS011;16382;59.942;30.472;2022-11-21T01:30:09;7.25;;;5.03;;
29402;SDS011;16382;59.942;30.472;2022-11-21T01:32:38;6.00;;;4.90;;
29402;SDS011;16382;59.942;30.472;2022-11-21T01:35:06;8.43;;;4.80;;
29402;SDS011;16382;59.942;30.472;2022-11-21T01:37:34;9.85;;;3.88;;
29402;SDS011;16382;59.942;30.472;2022-11-21T01:40:01;4.13;;;3.72;;
29402;SDS011;16382;59.942;30.472;2022-11-21T01:42:42;5.10;;;3.95;;
29402;SDS011;16382;59.942;30.472;2022-11-21T01:48:24;6.80;;;3.95;;
29402;SDS011;16382;59.942;30.472;2022-11-21T01:50:58;6.28;;;4.07;;
29402;SDS011;16382;59.942;30.472;2022-11-21T01:53:29;6.90;;;4.25;;
29402;SDS011;16382;59.942;30.472;2022-11-21T01:55:56;5.03;;;4.10;;
29402;SDS011;16382;59.942;30.472;2022-11-21T01:58:24;5.57;;;3.97;;
29402;SDS011;16382;59.942;30.472;2022-11-21T02:00:51;8.98;;;4.30;;
29402;SDS011;16382;59.942;30.472;2022-11-21T02:03:21;5.50;;;4.60;;
29402;SDS011;16382;59.942;30.472;2022-11-21T02:05:53;8.43;;;4.53;;
29402;SDS011;16382;59.942;30.472;2022-11-21T02:08:21;4.75;;;4.32;;
29402;SDS011;16382;59.942;30.472;2022-11-21T02:10:53;4.18;;;3.78;;
29402;SDS011;16382;59.942;30.472;2022-11-21T02:13:28;4.65;;;4.03;;
29402;SDS011;16382;59.942;30.472;2022-11-21T02:15:57;5.32;;;3.80;;
29402;SDS011;16382;59.942;30.472;2022-11-21T02:18:25;6.13;;;4.25;;
29402;SDS011;16382;59.942;30.472;2022-11-21T02:20:54;5.68;;;4.40;;
29402;SDS011;16382;59.942;30.472;2022-11-21T02:23:28;4.60;;;3.85;;
29402;SDS011;16382;59.942;30.472;2022-11-21T02:26:06;4.97;;;3.75;;
29402;SDS011;16382;59.942;30.472;2022-11-21T02:28:33;5.28;;;3.78;;
29402;SDS011;16382;59.942;30.472;2022-11-21T02:31:01;4.95;;;3.92;;
29402;SDS011;16382;59.942;30.472;2022-11-21T02:33:28;4.20;;;3.53;;
29402;SDS011;16382;59.942;30.472;2022-11-21T02:35:56;5.97;;;4.30;;
29402;SDS011;16382;59.942;30.472;2022-11-21T02:38:26;4.80;;;3.85;;
29402;SDS011;16382;59.942;30.472;2022-11-21T02:40:59;5.75;;;3.45;;
29402;SDS011;16382;59.942;30.472;2022-11-21T02:43:35;4.35;;;3.88;;
29402;SDS011;16382;59.942;30.472;2022-11-21T02:46:05;5.55;;;4.15;;
29402;SDS011;16382;59.942;30.472;2022-11-21T02:48:32;4.93;;;3.53;;
29402;SDS011;16382;59.942;30.472;2022-11-21T02:51:02;5.45;;;3.88;;
29402;SDS011;16382;59.942;30.472;2022-11-21T02:53:29;5.20;;;3.67;;
29402;SDS011;16382;59.942;30.472;2022-11-21T02:55:56;5.38;;;3.85;;
29402;SDS011;16382;59.942;30.472;2022-11-21T02:58:25;5.45;;;3.90;;
29402;SDS011;16382;59.942;30.472;2022-11-21T03:00:53;5.20;;;3.63;;
29402;SDS011;16382;59.942;30.472;2022-11-21T03:03:20;5.15;;;4.05;;
29402;SDS011;16382;59.942;30.472;2022-11-21T03:05:48;4.65;;;3.67;;
29402;SDS011;16382;59.942;30.472;2022-11-21T03:08:15;6.25;;;3.67;;
29402;SDS011;16382;59.942;30.472;2022-11-21T03:10:43;5.25;;;4.00;;
29402;SDS011;16382;59.942;30.472;2022-11-21T03:13:10;6.65;;;4.05;;
29402;SDS011;16382;59.942;30.472;2022-11-21T03:15:39;5.70;;;4.10;;
29402;SDS011;16382;59.942;30.472;2022-11-21T03:18:06;6.40;;;3.97;;
29402;SDS011;16382;59.942;30.472;2022-11-21T03:20:33;8.93;;;4.60;;
29402;SDS011;16382;59.942;30.472;2022-11-21T03:23:01;5.43;;;4.05;;
29402;SDS011;16382;59.942;30.472;2022-11-21T03:25:29;7.05;;;4.40;;
29402;SDS011;16382;59.942;30.472;2022-11-21T03:27:56;6.35;;;4.90;;
29402;SDS011;16382;59.942;30.472;2022-11-21T03:30:24;7.32;;;4.47;;
29402;SDS011;16382;59.942;30.472;2022-11-21T03:32:55;4.85;;;4.32;;
29402;SDS011;16382;59.942;30.472;2022-11-21T03:35:23;6.95;;;5.20;;
29402;SDS011;16382;59.942;30.472;2022-11-21T03:37:50;14.98;;;5.70;;
29402;SDS011;16382;59.942;30.472;2022-11-21T03:40:18;7.57;;;5.25;;
29402;SDS011;16382;59.942;30.472;2022-11-21T03:42:46;6.30;;;4.97;;
29402;SDS011;16382;59.942;30.472;2022-11-21T03:45:13;7.22;;;4.97;;
29402;SDS011;16382;59.942;30.472;2022-11-21T03:47:43;6.22;;;4.93;;
29402;SDS011;16382;59.942;30.472;2022-11-21T03:50:12;5.82;;;4.43;;
29402;SDS011;16382;59.942;30.472;2022-11-21T03:52:43;7.97;;;5.23;;
29402;SDS011;16382;59.942;30.472;2022-11-21T03:55:10;7.18;;;5.07;;
29402;SDS011;16382;59.942;30.472;2022-11-21T03:57:37;6.45;;;4.85;;
29402;SDS011;16382;59.942;30.472;2022-11-21T04:00:05;6.03;;;4.95;;
29402;SDS011;16382;59.942;30.472;2022-11-21T04:02:35;5.78;;;4.60;;
29402;SDS011;16382;59.942;30.472;2022-11-21T04:05:02;6.28;;;5.07;;
29402;SDS011;16382;59.942;30.472;2022-11-21T04:07:32;7.25;;;5.07;;
29402;SDS011;16382;59.942;30.472;2022-11-21T04:09:59;7.03;;;4.82;;
29402;SDS011;16382;59.942;30.472;2022-11-21T04:12:28;5.43;;;4.93;;
29402;SDS011;16382;59.942;30.472;2022-11-21T04:14:55;7.35;;;5.32;;
29402;SDS011;16382;59.942;30.472;2022-11-21T04:17:23;5.30;;;4.35;;
29402;SDS011;16382;59.942;30.472;2022-11-21T04:19:51;6.40;;;4.68;;
29402;SDS011;16382;59.942;30.472;2022-11-21T04:22:18;7.55;;;5.30;;
29402;SDS011;16382;59.942;30.472;2022-11-21T04:24:47;7.90;;;5.30;;
29402;SDS011;16382;59.942;30.472;2022-11-21T04:27:14;6.78;;;5.03;;
29402;SDS011;16382;59.942;30.472;2022-11-21T04:29:42;8.10;;;4.68;;
29402;SDS011;16382;59.942;30.472;2022-11-21T04:32:09;6.80;;;5.47;;
29402;SDS011;16382;59.942;30.472;2022-11-21T04:34:36;7.40;;;5.50;;
29402;SDS011;16382;59.942;30.472;2022-11-21T04:37:04;7.78;;;5.38;;
29402;SDS011;16382;59.942;30.472;2022-11-21T04:39:31;5.75;;;4.78;;
29402;SDS011;16382;59.942;30.472;2022-11-21T04:42:00;8.50;;;5.57;;
29402;SDS011;16382;59.942;30.472;2022-11-21T04:44:27;8.90;;;5.85;;
29402;SDS011;16382;59.942;30.472;2022-11-21T04:46:54;11.65;;;6.13;;
29402;SDS011;16382;59.942;30.472;2022-11-21T04:49:27;8.85;;;5.90;;
29402;SDS011;16382;59.942;30.472;2022-11-21T04:51:54;6.88;;;5.13;;
29402;SDS011;16382;59.942;30.472;2022-11-21T04:54:21;8.13;;;5.53;;
29402;SDS011;16382;59.942;30.472;2022-11-21T04:56:49;13.70;;;6.20;;
29402;SDS011;16382;59.942;30.472;2022-11-21T04:59:21;9.13;;;6.18;;
29402;SDS011;16382;59.942;30.472;2022-11-21T05:01:49;10.18;;;5.90;;
29402;SDS011;16382;59.942;30.472;2022-11-21T05:04:16;12.15;;;6.80;;
29402;SDS011;16382;59.942;30.472;2022-11-21T05:06:43;8.80;;;6.50;;
29402;SDS011;16382;59.942;30.472;2022-11-21T05:09:10;9.23;;;6.13;;
29402;SDS011;16382;59.942;30.472;2022-11-21T05:11:38;9.30;;;6.50;;
29402;SDS011;16382;59.942;30.472;2022-11-21T05:14:24;8.25;;;5.65;;
29402;SDS011;16382;59.942;30.472;2022-11-21T05:16:52;12.13;;;5.90;;
29402;SDS011;16382;59.942;30.472;2022-11-21T05:19:19;9.63;;;5.80;;
29402;SDS011;16382;59.942;30.472;2022-11-21T05:21:49;9.27;;;5.22;;
29402;SDS011;16382;59.942;30.472;2022-11-21T05:24:20;8.88;;;5.85;;
29402;SDS011;16382;59.942;30.472;2022-11-21T05:26:47;11.55;;;6.40;;
29402;SDS011;16382;59.942;30.472;2022-11-21T05:29:14;6.82;;;5.28;;
29402;SDS011;16382;59.942;30.472;2022-11-21T05:31:43;7.25;;;5.45;;
29402;SDS011;16382;59.942;30.472;2022-11-21T05:34:11;7.55;;;6.13;;
29402;SDS011;16382;59.942;30.472;2022-11-21T05:36:39;7.65;;;5.32;;
29402;SDS011;16382;59.942;30.472;2022-11-21T05:39:06;8.32;;;5.63;;
29402;SDS011;16382;59.942;30.472;2022-11-21T05:41:34;6.38;;;4.88;;
29402;SDS011;16382;59.942;30.472;2022-11-21T05:44:01;7.55;;;5.35;;
29402;SDS011;16382;59.942;30.472;2022-11-21T05:46:28;6.40;;;4.60;;
29402;SDS011;16382;59.942;30.472;2022-11-21T05:48:56;8.52;;;5.85;;
29402;SDS011;16382;59.942;30.472;2022-11-21T05:51:24;5.97;;;4.60;;
29402;SDS011;16382;59.942;30.472;2022-11-21T05:53:51;8.10;;;5.30;;
29402;SDS011;16382;59.942;30.472;2022-11-21T05:56:19;5.95;;;3.80;;
29402;SDS011;16382;59.942;30.472;2022-11-21T05:58:46;6.47;;;4.45;;
29402;SDS011;16382;59.942;30.472;2022-11-21T06:01:14;12.75;;;5.45;;
29402;SDS011;16382;59.942;30.472;2022-11-21T06:04:05;7.57;;;5.05;;
29402;SDS011;16382;59.942;30.472;2022-11-21T06:06:32;7.47;;;5.50;;
29402;SDS011;16382;59.942;30.472;2022-11-21T06:08:59;8.52;;;5.13;;
29402;SDS011;16382;59.942;30.472;2022-11-21T06:11:27;8.00;;;5.28;;
29402;SDS011;16382;59.942;30.472;2022-11-21T06:13:55;11.23;;;5.22;;
29402;SDS011;16382;59.942;30.472;2022-11-21T06:16:24;7.00;;;5.72;;
29402;SDS011;16382;59.942;30.472;2022-11-21T06:18:51;10.10;;;5.28;;
29402;SDS011;16382;59.942;30.472;2022-11-21T06:21:20;9.93;;;5.80;;
29402;SDS011;16382;59.942;30.472;2022-11-21T06:23:50;10.25;;;6.78;;
29402;SDS011;16382;59.942;30.472;2022-11-21T06:26:20;8.98;;;6.05;;
29402;SDS011;16382;59.942;30.472;2022-11-21T06:28:49;9.73;;;6.88;;
29402;SDS011;16382;59.942;30.472;2022-11-21T06:31:18;9.85;;;7.07;;
29402;SDS011;16382;59.942;30.472;2022-11-21T06:33:50;9.82;;;7.03;;
29402;SDS011;16382;59.942;30.472;2022-11-21T06:36:18;10.77;;;7.18;;
29402;SDS011;16382;59.942;30.472;2022-11-21T06:38:47;11.50;;;8.18;;
29402;SDS011;16382;59.942;30.472;2022-11-21T06:41:15;10.38;;;7.90;;
29402;SDS011;16382;59.942;30.472;2022-11-21T06:43:44;13.88;;;9.10;;
29402;SDS011;16382;59.942;30.472;2022-11-21T06:46:12;10.98;;;7.55;;
29402;SDS011;16382;59.942;30.472;2022-11-21T06:48:41;11.88;;;8.25;;
29402;SDS011;16382;59.942;30.472;2022-11-21T06:51:11;13.43;;;7.70;;
29402;SDS011;16382;59.942;30.472;2022-11-21T06:53:43;11.80;;;8.13;;
29402;SDS011;16382;59.942;30.472;2022-11-21T06:56:13;13.82;;;8.60;;
29402;SDS011;16382;59.942;30.472;2022-11-21T06:58:40;16.30;;;9.05;;
29402;SDS011;16382;59.942;30.472;2022-11-21T07:01:08;11.40;;;7.85;;
29402;SDS011;16382;59.942;30.472;2022-11-21T07:03:36;12.30;;;8.63;;
29402;SDS011;16382;59.942;30.472;2022-11-21T07:06:04;10.15;;;6.32;;
29402;SDS011;16382;59.942;30.472;2022-11-21T07:08:32;11.38;;;6.70;;
29402;SDS011;16382;59.942;30.472;2022-11-21T07:11:03;8.15;;;6.22;;
29402;SDS011;16382;59.942;30.472;2022-11-21T07:13:32;8.00;;;6.20;;
29402;SDS011;16382;59.942;30.472;2022-11-21T07:16:00;26.58;;;7.00;;
29402;SDS011;16382;59.942;30.472;2022-11-21T07:18:29;6.65;;;5.68;;
29402;SDS011;16382;59.942;30.472;2022-11-21T07:20:57;8.23;;;6.32;;
29402;SDS011;16382;59.942;30.472;2022-11-21T07:23:24;9.02;;;6.13;;
29402;SDS011;16382;59.942;30.472;2022-11-21T07:25:52;9.90;;;6.15;;
29402;SDS011;16382;59.942;30.472;2022-11-21T07:28:21;6.80;;;5.50;;
29402;SDS011;16382;59.942;30.472;2022-11-21T07:30:49;11.43;;;5.60;;
29402;SDS011;16382;59.942;30.472;2022-11-21T07:33:16;8.32;;;5.00;;
29402;SDS011;16382;59.942;30.472;2022-11-21T07:35:43;5.38;;;4.43;;
29402;SDS011;16382;59.942;30.472;2022-11-21T07:38:11;8.05;;;5.85;;
29402;SDS011;16382;59.942;30.472;2022-11-21T07:40:38;9.27;;;5.90;;
29402;SDS011;16382;59.942;30.472;2022-11-21T07:43:05;8.65;;;5.85;;
29402;SDS011;16382;59.942;30.472;2022-11-21T07:45:34;8.57;;;6.07;;
29402;SDS011;16382;59.942;30.472;2022-11-21T07:48:03;12.07;;;7.70;;
29402;SDS011;16382;59.942;30.472;2022-11-21T07:50:32;11.88;;;8.13;;
29402;SDS011;16382;59.942;30.472;2022-11-21T07:53:00;13.77;;;8.60;;
29402;SDS011;16382;59.942;30.472;2022-11-21T07:55:29;14.65;;;8.88;;
29402;SDS011;16382;59.942;30.472;2022-11-21T07:57:57;14.52;;;9.48;;
29402;SDS011;16382;59.942;30.472;2022-11-21T08:00:25;17.98;;;10.40;;
29402;SDS011;16382;59.942;30.472;2022-11-21T08:02:55;15.70;;;9.20;;
29402;SDS011;16382;59.942;30.472;2022-11-21T08:05:22;15.15;;;10.32;;
29402;SDS011;16382;59.942;30.472;2022-11-21T08:07:50;18.35;;;10.05;;
29402;SDS011;16382;59.942;30.472;2022-11-21T08:10:17;17.52;;;9.65;;
29402;SDS011;16382;59.942;30.472;2022-11-21T08:12:45;13.57;;;9.15;;
29402;SDS011;16382;59.942;30.472;2022-11-21T08:15:13;16.27;;;9.32;;
29402;SDS011;16382;59.942;30.472;2022-11-21T08:17:40;14.25;;;8.98;;
29402;SDS011;16382;59.942;30.472;2022-11-21T08:20:10;14.77;;;8.48;;
29402;SDS011;16382;59.942;30.472;2022-11-21T08:22:37;13.15;;;8.13;;
29402;SDS011;16382;59.942;30.472;2022-11-21T08:25:06;9.93;;;7.72;;
29402;SDS011;16382;59.942;30.472;2022-11-21T08:27:35;11.60;;;7.78;;
29402;SDS011;16382;59.942;30.472;2022-11-21T08:30:04;12.32;;;7.40;;
29402;SDS011;16382;59.942;30.472;2022-11-21T08:32:33;19.85;;;7.45;;
29402;SDS011;16382;59.942;30.472;2022-11-21T08:35:01;12.60;;;7.80;;
29402;SDS011;16382;59.942;30.472;2022-11-21T08:37:31;10.43;;;6.50;;
29402;SDS011;16382;59.942;30.472;2022-11-21T08:39:58;9.80;;;6.30;;
29402;SDS011;16382;59.942;30.472;2022-11-21T08:42:29;8.88;;;5.68;;
29402;SDS011;16382;59.942;30.472;2022-11-21T08:44:57;10.13;;;6.45;;
29402;SDS011;16382;59.942;30.472;2022-11-21T08:47:24;7.82;;;5.70;;
29402;SDS011;16382;59.942;30.472;2022-11-21T08:49:54;10.30;;;6.43;;
29402;SDS011;16382;59.942;30.472;2022-11-21T08:52:21;8.23;;;5.82;;
29402;SDS011;16382;59.942;30.472;2022-11-21T08:54:50;8.48;;;5.60;;
29402;SDS011;16382;59.942;30.472;2022-11-21T08:57:17;9.07;;;5.50;;
29402;SDS011;16382;59.942;30.472;2022-11-21T08:59:45;7.00;;;5.05;;
29402;SDS011;16382;59.942;30.472;2022-11-21T09:02:12;6.82;;;5.25;;
29402;SDS011;16382;59.942;30.472;2022-11-21T09:04:39;8.05;;;5.47;;
29402;SDS011;16382;59.942;30.472;2022-11-21T09:07:07;7.75;;;5.90;;
29402;SDS011;16382;59.942;30.472;2022-11-21T09:09:34;5.30;;;4.72;;
29402;SDS011;16382;59.942;30.472;2022-11-21T09:12:03;9.02;;;4.70;;
29402;SDS011;16382;59.942;30.472;2022-11-21T09:14:31;6.15;;;4.78;;
29402;SDS011;16382;59.942;30.472;2022-11-21T09:17:16;8.73;;;4.93;;
29402;SDS011;16382;59.942;30.472;2022-11-21T09:20:00;6.03;;;4.25;;
29402;SDS011;16382;59.942;30.472;2022-11-21T09:22:28;8.50;;;4.63;;
29402;SDS011;16382;59.942;30.472;2022-11-21T09:24:56;6.50;;;4.57;;
29402;SDS011;16382;59.942;30.472;2022-11-21T09:27:24;6.45;;;4.55;;
29402;SDS011;16382;59.942;30.472;2022-11-21T09:29:52;12.63;;;5.13;;
29402;SDS011;16382;59.942;30.472;2022-11-21T09:32:19;7.80;;;4.78;;
29402;SDS011;16382;59.942;30.472;2022-11-21T09:34:50;7.63;;;4.78;;
29402;SDS011;16382;59.942;30.472;2022-11-21T09:37:26;9.50;;;5.07;;
29402;SDS011;16382;59.942;30.472;2022-11-21T09:39:54;8.43;;;4.68;;
29402;SDS011;16382;59.942;30.472;2022-11-21T09:42:27;5.03;;;4.43;;
29402;SDS011;16382;59.942;30.472;2022-11-21T09:45:20;5.30;;;4.78;;
29402;SDS011;16382;59.942;30.472;2022-11-21T09:47:52;9.23;;;5.47;;
29402;SDS011;16382;59.942;30.472;2022-11-21T09:50:24;7.28;;;4.18;;
29402;SDS011;16382;59.942;30.472;2022-11-21T09:52:57;5.72;;;4.50;;
29402;SDS011;16382;59.942;30.472;2022-11-21T09:55:31;7.10;;;4.43;;
29402;SDS011;16382;59.942;30.472;2022-11-21T09:58:12;5.60;;;4.30;;
29402;SDS011;16382;59.942;30.472;2022-11-21T10:00:49;5.15;;;4.25;;
29402;SDS011;16382;59.942;30.472;2022-11-21T10:03:17;5.05;;;3.97;;
29402;SDS011;16382;59.942;30.472;2022-11-21T10:05:48;5.05;;;4.15;;
29402;SDS011;16382;59.942;30.472;2022-11-21T10:08:22;4.10;;;3.70;;
29402;SDS011;16382;59.942;30.472;2022-11-21T10:11:05;5.45;;;4.22;;
29402;SDS011;16382;59.942;30.472;2022-11-21T10:13:51;6.90;;;4.57;;
29402;SDS011;16382;59.942;30.472;2022-11-21T10:16:32;6.43;;;4.75;;
29402;SDS011;16382;59.942;30.472;2022-11-21T10:22:07;5.22;;;4.22;;
29402;SDS011;16382;59.942;30.472;2022-11-21T10:25:02;12.18;;;4.63;;
29402;SDS011;16382;59.942;30.472;2022-11-21T10:27:40;7.82;;;4.45;;
29402;SDS011;16382;59.942;30.472;2022-11-21T10:30:17;6.70;;;4.35;;
29402;SDS011;16382;59.942;30.472;2022-11-21T10:32:47;5.47;;;4.38;;
29402;SDS011;16382;59.942;30.472;2022-11-21T10:35:20;14.13;;;6.70;;
29402;SDS011;16382;59.942;30.472;2022-11-21T10:37:49;6.50;;;4.28;;
29402;SDS011;16382;59.942;30.472;2022-11-21T10:40:31;7.82;;;4.20;;
29402;SDS011;16382;59.942;30.472;2022-11-21T10:43:05;8.48;;;4.38;;
29402;SDS011;16382;59.942;30.472;2022-11-21T10:45:58;7.20;;;4.30;;
29402;SDS011;16382;59.942;30.472;2022-11-21T10:48:25;6.75;;;4.55;;
29402;SDS011;16382;59.942;30.472;2022-11-21T10:50:58;6.65;;;4.53;;
29402;SDS011;16382;59.942;30.472;2022-11-21T10:53:40;5.55;;;3.88;;
29402;SDS011;16382;59.942;30.472;2022-11-21T10:56:36;15.45;;;5.88;;
29402;SDS011;16382;59.942;30.472;2022-11-21T10:59:10;6.97;;;4.28;;
29402;SDS011;16382;59.942;30.472;2022-11-21T11:01:54;6.10;;;3.90;;
29402;SDS011;16382;59.942;30.472;2022-11-21T11:04:23;8.95;;;4.28;;
29402;SDS011;16382;59.942;30.472;2022-11-21T11:06:53;7.18;;;4.05;;
29402;SDS011;16382;59.942;30.472;2022-11-21T11:09:21;5.78;;;4.30;;
29402;SDS011;16382;59.942;30.472;2022-11-21T11:11:53;8.25;;;4.45;;
29402;SDS011;16382;59.942;30.472;2022-11-21T11:14:48;5.95;;;4.28;;
29402;SDS011;16382;59.942;30.472;2022-11-21T11:17:26;4.70;;;4.00;;
29402;SDS011;16382;59.942;30.472;2022-11-21T11:19:59;4.95;;;3.90;;
29402;SDS011;16382;59.942;30.472;2022-11-21T11:22:30;6.45;;;4.28;;
29402;SDS011;16382;59.942;30.472;2022-11-21T11:24:57;4.80;;;4.25;;
29402;SDS011;16382;59.942;30.472;2022-11-21T11:27:25;4.95;;;4.40;;
29402;SDS011;16382;59.942;30.472;2022-11-21T11:29:53;7.75;;;4.43;;
29402;SDS011;16382;59.942;30.472;2022-11-21T11:32:21;8.38;;;4.50;;
29402;SDS011;16382;59.942;30.472;2022-11-21T11:34:55;8.10;;;5.20;;
29402;SDS011;16382;59.942;30.472;2022-11-21T11:37:28;5.45;;;4.50;;
29402;SDS011;16382;59.942;30.472;2022-11-21T11:40:05;7.78;;;4.75;;
29402;SDS011;16382;59.942;30.472;2022-11-21T11:42:49;9.35;;;5.55;;
29402;SDS011;16382;59.942;30.472;2022-11-21T11:49:01;5.88;;;4.28;;
29402;SDS011;16382;59.942;30.472;2022-11-21T11:51:36;7.53;;;4.47;;
29402;SDS011;16382;59.942;30.472;2022-11-21T11:54:07;14.93;;;5.80;;
29402;SDS011;16382;59.942;30.472;2022-11-21T11:56:39;6.97;;;5.22;;
29402;SDS011;16382;59.942;30.472;2022-11-21T11:59:11;7.47;;;4.88;;
29402;SDS011;16382;59.942;30.472;2022-11-21T12:01:45;6.50;;;4.85;;
29402;SDS011;16382;59.942;30.472;2022-11-21T12:04:18;8.10;;;4.60;;
29402;SDS011;16382;59.942;30.472;2022-11-21T12:06:49;6.93;;;5.32;;
29402;SDS011;16382;59.942;30.472;2022-11-21T12:09:22;7.13;;;4.90;;
29402;SDS011;16382;59.942;30.472;2022-11-21T12:11:58;6.80;;;4.88;;
29402;SDS011;16382;59.942;30.472;2022-11-21T12:14:44;8.07;;;4.95;;
29402;SDS011;16382;59.942;30.472;2022-11-21T12:17:39;6.95;;;4.68;;
29402;SDS011;16382;59.942;30.472;2022-11-21T12:20:15;6.18;;;4.63;;
29402;SDS011;16382;59.942;30.472;2022-11-21T12:22:47;6.30;;;4.72;;
29402;SDS011;16382;59.942;30.472;2022-11-21T12:25:18;5.68;;;4.32;;
29402;SDS011;16382;59.942;30.472;2022-11-21T12:28:02;9.25;;;5.50;;
29402;SDS011;16382;59.942;30.472;2022-11-21T12:30:53;7.47;;;4.93;;
29402;SDS011;16382;59.942;30.472;2022-11-21T12:33:31;8.93;;;4.68;;
29402;SDS011;16382;59.942;30.472;2022-11-21T12:36:09;8.57;;;4.53;;
29402;SDS011;16382;59.942;30.472;2022-11-21T12:38:52;7.25;;;5.20;;
29402;SDS011;16382;59.942;30.472;2022-11-21T12:42:08;6.95;;;5.20;;
29402;SDS011;16382;59.942;30.472;2022-11-21T12:45:03;12.18;;;5.82;;
29402;SDS011;16382;59.942;30.472;2022-11-21T12:51:27;9.02;;;4.88;;
29402;SDS011;16382;59.942;30.472;2022-11-21T12:54:35;7.28;;;5.35;;
29402;SDS011;16382;59.942;30.472;2022-11-21T12:57:23;10.32;;;4.50;;
29402;SDS011;16382;59.942;30.472;2022-11-21T13:00:06;6.18;;;4.57;;
29402;SDS011;16382;59.942;30.472;2022-11-21T13:05:47;8.82;;;4.53;;
29402;SDS011;16382;59.942;30.472;2022-11-21T13:08:18;10.15;;;4.50;;
29402;SDS011;16382;59.942;30.472;2022-11-21T13:10:54;6.13;;;5.00;;
29402;SDS011;16382;59.942;30.472;2022-11-21T13:13:54;10.63;;;4.90;;
29402;SDS011;16382;59.942;30.472;2022-11-21T13:16:28;6.15;;;4.00;;
29402;SDS011;16382;59.942;30.472;2022-11-21T13:19:11;5.80;;;3.63;;
29402;SDS011;16382;59.942;30.472;2022-11-21T13:21:50;9.85;;;4.88;;
29402;SDS011;16382;59.942;30.472;2022-11-21T13:27:34;6.32;;;3.92;;
29402;SDS011;16382;59.942;30.472;2022-11-21T13:30:20;12.77;;;4.75;;
29402;SDS011;16382;59.942;30.472;2022-11-21T13:32:50;6.55;;;4.53;;
29402;SDS011;16382;59.942;30.472;2022-11-21T13:48:20;7.10;;;4.57;;
29402;SDS011;16382;59.942;30.472;2022-11-21T13:51:25;8.38;;;4.72;;
29402;SDS011;16382;59.942;30.472;2022-11-21T13:57:43;11.73;;;4.47;;
29402;SDS011;16382;59.942;30.472;2022-11-21T14:00:24;8.05;;;3.38;;
29402;SDS011;16382;59.942;30.472;2022-11-21T14:03:26;7.38;;;3.75;;
29402;SDS011;16382;59.942;30.472;2022-11-21T14:06:31;7.05;;;3.63;;
29402;SDS011;16382;59.942;30.472;2022-11-21T14:09:17;4.47;;;3.28;;
29402;SDS011;16382;59.942;30.472;2022-11-21T14:11:49;8.98;;;4.28;;
29402;SDS011;16382;59.942;30.472;2022-11-21T14:14:30;4.85;;;4.00;;
29402;SDS011;16382;59.942;30.472;2022-11-21T14:18:55;4.20;;;3.28;;
29402;SDS011;16382;59.942;30.472;2022-11-21T14:21:25;6.65;;;4.82;;
29402;SDS011;16382;59.942;30.472;2022-11-21T14:23:55;6.75;;;4.35;;
29402;SDS011;16382;59.942;30.472;2022-11-21T14:26:29;7.75;;;4.60;;
29402;SDS011;16382;59.942;30.472;2022-11-21T14:29:17;5.90;;;4.10;;
29402;SDS011;16382;59.942;30.472;2022-11-21T14:31:47;7.07;;;4.88;;
29402;SDS011;16382;59.942;30.472;2022-11-21T14:34:24;6.30;;;3.83;;
29402;SDS011;16382;59.942;30.472;2022-11-21T14:36:53;6.07;;;3.58;;
29402;SDS011;16382;59.942;30.472;2022-11-21T14:39:25;5.18;;;3.33;;
29402;SDS011;16382;59.942;30.472;2022-11-21T14:41:54;8.00;;;3.90;;
29402;SDS011;16382;59.942;30.472;2022-11-21T14:44:23;5.13;;;3.72;;
29402;SDS011;16382;59.942;30.472;2022-11-21T14:47:02;8.82;;;4.82;;
29402;SDS011;16382;59.942;30.472;2022-11-21T14:50:02;11.35;;;3.47;;
29402;SDS011;16382;59.942;30.472;2022-11-21T14:52:30;7.57;;;4.50;;
29402;SDS011;16382;59.942;30.472;2022-11-21T14:55:00;7.85;;;4.60;;
29402;SDS011;16382;59.942;30.472;2022-11-21T14:57:31;7.13;;;3.78;;
29402;SDS011;16382;59.942;30.472;2022-11-21T15:00:03;6.38;;;4.35;;
29402;SDS011;16382;59.942;30.472;2022-11-21T15:02:34;4.85;;;3.60;;
29402;SDS011;16382;59.942;30.472;2022-11-21T15:05:04;6.63;;;4.32;;
29402;SDS011;16382;59.942;30.472;2022-11-21T15:07:40;5.82;;;3.42;;
29402;SDS011;16382;59.942;30.472;2022-11-21T15:10:10;5.28;;;3.42;;
29402;SDS011;16382;59.942;30.472;2022-11-21T15:12:40;6.00;;;3.50;;
29402;SDS011;16382;59.942;30.472;2022-11-21T15:15:18;4.85;;;3.13;;
29402;SDS011;16382;59.942;30.472;2022-11-21T15:17:54;7.13;;;3.15;;
29402;SDS011;16382;59.942;30.472;2022-11-21T15:20:25;4.68;;;3.50;;
29402;SDS011;16382;59.942;30.472;2022-11-21T15:22:53;4.85;;;3.33;;
29402;SDS011;16382;59.942;30.472;2022-11-21T15:25:23;6.30;;;3.90;;
29402;SDS011;16382;59.942;30.472;2022-11-21T15:28:04;6.07;;;3.40;;
29402;SDS011;16382;59.942;30.472;2022-11-21T15:30:35;4.18;;;3.10;;
29402;SDS011;16382;59.942;30.472;2022-11-21T15:33:04;7.25;;;4.18;;
29402;SDS011;16382;59.942;30.472;2022-11-21T15:35:39;8.18;;;4.20;;
29402;SDS011;16382;59.942;30.472;2022-11-21T15:38:23;6.13;;;4.38;;